Date,TemperatureHighF,TemperatureAvgF,TemperatureLowF,DewpointHighF,DewpointAvgF,DewpointLowF,HumidityHigh,HumidityAvg,HumidityLow,PressureMaxIn,PressureMinIn,WindSpeedMaxMPH,WindSpeedAvgMPH,GustSpeedMaxMPH,PrecipitationSumIn
2013-1-1,32.3,27.1,19.2,30.8,23.7,14.5,95,87,77,30.10,30.00,7,2,12,0.05
2013-1-2,23.6,19.8,10.0,18.0,15.1,8.0,92,82,75,30.26,30.08,7,2,12,0.00
2013-1-3,30.6,19.9,5.7,24.6,15.7,3.4,95,84,68,30.25,30.13,16,4,23,0.00
2013-1-4,31.2,28.3,24.9,24.5,21.2,18.8,86,75,63,30.25,30.10,19,7,28,0.00
2013-1-5,34.7,29.7,25.4,27.6,24.1,19.8,86,79,70,30.38,30.12,10,3,14,0.00
2013-1-6,37.1,34.5,32.5,33.3,30.5,27.4,97,85,78,30.21,29.95,10,4,17,0.02
2013-1-7,35.0,31.5,27.4,30.3,27.9,23.9,96,87,74,30.44,30.22,11,4,20,0.02
2013-1-8,43.1,32.1,22.3,29.9,25.9,20.3,94,79,55,30.33,30.25,10,3,15,0.00
2013-1-9,48.5,40.4,33.9,39.4,32.7,28.7,91,74,57,30.47,30.16,13,5,22,0.06
2013-1-10,41.9,34.9,26.3,32.3,29.3,25.3,98,81,63,30.60,30.27,6,1,12,0.00
2013-1-11,52.0,46.3,40.3,51.2,41.4,28.4,99,84,60,30.26,29.86,12,4,20,0.50
2013-1-12,60.5,54.9,47.7,56.3,52.8,47.3,100,93,82,30.02,29.87,11,4,20,0.00
2013-1-13,66.1,59.6,42.1,58.8,55.7,40.8,100,87,75,29.92,29.73,14,5,23,0.17
2013-1-14,41.7,32.3,26.4,40.4,27.9,22.8,96,84,72,30.42,29.93,12,3,20,0.01
2013-1-15,32.5,29.3,25.0,25.7,23.7,21.8,93,79,67,30.42,30.11,6,1,12,0.00
2013-1-16,36.2,32.4,29.8,30.2,27.4,25.0,90,82,67,30.11,29.88,10,2,18,0.00
2013-1-17,36.4,33.5,27.4,30.6,27.4,22.9,89,78,68,30.20,29.99,10,3,19,0.00
2013-1-18,33.9,26.5,19.5,23.4,17.5,11.5,86,69,58,30.49,30.16,15,6,23,0.00
2013-1-19,51.3,43.4,34.0,30.8,26.2,21.2,61,51,38,30.16,29.72,18,8,31,0.00
2013-1-20,47.1,30.7,22.9,34.3,19.7,11.8,79,64,45,30.15,29.67,27,8,43,0.00
2013-1-21,22.9,19.2,12.1,18.1,11.1,5.2,89,70,61,30.12,29.93,15,6,26,0.00
2013-1-22,12.1,8.7,7.0,6.3,3.4,1.4,89,79,68,30.31,30.08,16,6,24,0.00
2013-1-23,15.5,10.6,4.7,12.9,5.0,0.0,94,78,63,30.32,30.12,12,4,20,0.02
2013-1-24,21.8,12.5,4.9,15.0,7.0,1.7,94,80,47,30.60,30.11,9,1,15,0.04
2013-1-25,18.7,14.7,7.8,14.4,11.0,5.2,91,85,76,30.56,30.07,8,1,14,0.10
2013-1-26,27.9,21.7,16.6,22.3,18.8,14.4,94,89,70,30.47,30.11,12,2,16,0.01
2013-1-27,30.1,22.2,8.2,26.3,16.5,6.1,95,80,63,30.56,30.30,10,2,13,0.00
2013-1-28,46.0,39.1,28.3,46.0,38.3,26.1,100,97,87,30.31,29.95,13,4,20,0.05
2013-1-29,59.8,51.2,38.9,55.9,50.1,38.9,100,96,80,30.03,29.68,12,4,18,0.14
2013-1-30,64.4,57.8,38.6,58.6,53.0,35.3,97,84,73,29.68,29.12,22,8,37,0.27
2013-1-31,38.5,27.0,19.4,35.5,21.2,13.1,97,79,64,29.86,29.23,20,10,33,0.03
2013-2-1,19.3,16.2,13.8,14.6,11.0,7.1,93,80,68,30.33,29.84,16,6,25,0.02
2013-2-2,22.3,17.4,12.2,20.8,14.2,5.9,95,87,73,30.32,29.99,8,3,13,0.00
2013-2-3,23.0,20.5,18.3,20.6,16.2,12.9,96,84,67,30.02,29.87,12,3,20,0.18
2013-2-4,26.0,21.2,16.8,23.8,18.5,14.0,95,89,82,30.07,29.89,10,2,17,0.05
2013-2-5,28.3,25.0,21.1,25.2,22.2,19.6,100,89,79,29.95,29.85,7,1,9,0.00
2013-2-6,31.2,25.6,17.3,26.4,18.6,11.9,96,76,49,30.35,29.95,9,2,15,0.02
2013-2-7,43.2,31.2,16.4,29.7,22.9,12.5,90,72,55,30.33,29.93,10,2,18,0.00
2013-2-8,37.5,31.3,22.5,36.0,27.9,18.9,97,87,78,30.22,29.77,15,6,25,0.25
2013-2-9,32.4,25.0,21.3,20.8,18.9,16.3,94,78,56,30.44,30.22,10,2,20,0.00
2013-2-10,48.3,34.6,20.2,28.3,20.9,15.3,86,60,35,30.36,29.89,11,3,20,0.00
2013-2-11,52.3,42.3,35.0,46.0,36.2,26.5,100,79,61,29.89,29.64,16,8,31,0.01
2013-2-12,35.0,31.5,24.5,27.2,25.4,22.8,94,78,70,30.07,29.89,12,4,20,0.00
2013-2-13,35.4,29.0,23.2,28.8,25.9,22.0,100,88,74,29.94,29.73,6,1,9,0.00
2013-2-14,39.5,32.8,23.9,36.7,30.5,22.7,96,91,78,29.91,29.83,14,5,22,0.03
2013-2-15,37.0,32.5,24.5,30.5,26.7,21.4,91,79,69,30.09,29.89,13,3,22,0.00
2013-2-16,28.7,24.1,16.7,23.4,18.9,13.5,97,81,55,30.08,29.97,7,1,12,0.08
2013-2-17,22.2,18.1,9.8,18.3,12.7,6.3,95,80,56,30.28,29.97,11,2,20,0.05
2013-2-18,42.9,25.7,7.7,31.9,16.5,4.7,91,70,53,30.31,29.82,11,4,22,0.00
2013-2-19,45.4,33.6,19.6,39.8,29.2,13.4,95,84,61,29.95,29.61,19,8,32,0.27
2013-2-20,20.9,19.3,17.5,17.9,15.1,12.1,93,84,75,30.23,29.95,14,5,20,0.01
2013-2-21,23.4,19.9,16.1,18.0,15.7,13.1,92,84,73,30.39,30.21,6,2,10,0.00
2013-2-22,36.4,29.2,17.7,35.4,26.2,14.5,97,89,75,30.34,29.98,11,3,18,0.02
2013-2-23,38.5,34.7,28.7,34.8,31.5,26.0,97,88,75,30.00,29.86,9,2,14,0.00
2013-2-24,32.7,29.8,27.4,27.0,25.1,22.4,92,82,71,30.15,29.88,10,2,17,0.00
2013-2-25,42.1,31.5,22.7,30.2,26.0,21.5,98,82,55,30.25,30.08,6,1,12,0.00
2013-2-26,39.7,34.8,29.0,36.0,30.2,24.5,97,84,64,30.10,29.55,11,4,22,0.84
2013-2-27,43.4,38.0,33.3,40.4,36.6,32.4,98,95,86,29.65,29.52,11,4,17,0.23
2013-2-28,35.2,33.4,31.0,34.0,32.0,30.0,98,95,89,29.84,29.58,8,3,13,0.07
2013-3-1,31.0,28.4,26.5,30.2,25.7,22.8,97,89,83,30.01,29.84,7,3,12,0.00
2013-3-2,27.1,25.6,22.8,24.8,22.8,20.6,93,89,84,30.00,29.97,8,2,12,0.00
2013-3-3,27.6,24.7,22.1,24.4,21.8,18.9,95,89,79,30.04,29.95,9,3,15,0.00
2013-3-4,35.6,26.7,20.4,24.9,20.4,17.7,94,78,52,30.14,30.03,10,2,18,0.02
2013-3-5,42.4,29.3,17.5,27.9,22.4,15.9,96,77,50,30.13,29.72,7,2,12,0.00
2013-3-6,43.9,37.2,32.7,32.2,30.0,26.7,94,75,56,30.14,29.72,11,2,20,0.00
2013-3-7,40.7,34.9,30.8,34.1,31.5,27.8,95,88,71,30.34,30.13,9,2,17,0.00
2013-3-8,39.9,33.3,29.6,32.4,29.3,26.6,94,86,69,30.44,30.33,8,2,13,0.00
2013-3-9,54.7,38.8,23.2,36.1,29.5,22.2,99,73,45,30.44,30.14,8,2,12,0.01
2013-3-10,69.1,56.6,46.3,42.2,34.7,27.5,62,44,35,30.14,29.89,13,5,20,0.01
2013-3-11,59.2,54.9,44.9,49.4,40.1,35.0,97,60,42,30.07,29.58,15,5,25,0.63
2013-3-12,46.7,38.3,34.3,43.3,32.7,26.6,94,80,71,29.98,29.70,14,5,22,0.05
2013-3-13,34.6,30.5,26.6,30.0,25.7,17.8,96,83,62,30.13,29.90,16,5,25,0.02
2013-3-14,35.6,29.9,26.2,23.9,21.0,18.1,80,69,54,30.23,30.12,11,5,20,0.00
2013-3-15,43.0,35.0,26.6,36.2,29.5,21.3,100,81,71,30.14,29.84,14,3,23,0.04
2013-3-16,35.2,32.2,28.2,34.2,31.0,25.2,98,95,88,30.01,29.67,7,1,13,0.24
2013-3-17,34.3,30.1,26.4,28.4,24.4,20.5,94,80,59,30.24,30.00,8,1,12,0.12
2013-3-18,38.1,32.8,26.3,37.6,29.8,20.1,100,89,73,30.23,29.65,12,5,23,0.42
2013-3-19,40.0,32.8,28.3,39.7,26.6,20.6,99,78,67,29.94,29.66,18,8,32,0.02
2013-3-20,31.8,28.6,23.7,26.1,21.8,19.5,93,76,64,29.95,29.88,15,5,21,0.01
2013-3-21,28.2,23.5,16.5,25.4,18.8,12.0,95,82,70,29.91,29.86,11,5,20,0.00
2013-3-22,31.2,26.7,20.8,26.3,23.7,18.4,97,88,74,30.03,29.90,10,4,16,0.09
2013-3-23,40.1,28.5,15.9,29.7,23.2,14.5,97,82,60,30.09,30.01,8,1,12,0.00
2013-3-24,37.1,31.0,22.2,28.7,24.8,20.7,97,79,60,30.05,29.54,10,2,15,0.00
2013-3-25,37.5,34.0,31.8,35.1,32.1,26.1,100,93,66,29.80,29.47,10,2,20,0.36
2013-3-26,39.2,34.8,31.1,35.2,32.6,30.6,98,92,80,30.08,29.80,10,2,18,0.02
2013-3-27,42.2,36.5,32.8,33.7,31.7,29.1,98,84,65,30.16,30.06,12,4,21,0.08
2013-3-28,42.2,37.0,33.5,34.8,33.1,31.6,98,86,70,30.27,30.14,8,3,17,0.02
2013-3-29,51.1,41.0,31.1,35.4,30.8,26.1,88,69,43,30.26,30.18,8,2,14,0.00
2013-3-30,55.6,40.7,26.4,31.5,26.7,23.7,92,62,31,30.25,30.00,12,2,18,0.00
2013-3-31,51.1,46.6,42.9,46.2,36.1,24.4,93,69,43,30.00,29.66,12,3,23,0.07
2013-4-1,46.5,37.8,31.5,43.3,26.7,16.0,93,66,40,30.04,29.64,12,6,21,0.02
2013-4-2,38.4,31.7,24.6,27.0,20.2,14.3,84,64,37,30.19,30.04,13,4,21,0.00
2013-4-3,37.0,30.9,24.8,23.4,19.3,14.9,80,63,43,30.44,30.19,11,3,18,0.00
2013-4-4,54.6,36.7,20.0,22.6,17.3,13.2,86,52,21,30.41,29.96,8,2,13,0.00
2013-4-5,48.4,38.4,29.4,35.3,26.0,17.2,78,61,41,30.21,29.92,10,3,18,0.00
2013-4-6,55.6,40.1,22.9,26.1,20.8,15.6,90,53,21,30.29,29.94,12,3,21,0.00
2013-4-7,70.0,57.7,43.2,49.1,38.4,18.4,82,50,25,30.00,29.79,18,6,30,0.00
2013-4-8,71.6,54.8,34.4,53.7,44.6,33.0,97,71,47,30.03,29.83,14,3,23,0.00
2013-4-9,77.0,63.1,45.7,58.7,52.0,43.6,95,69,50,30.08,29.82,12,4,20,0.12
2013-4-10,75.1,60.1,44.9,65.8,55.3,44.3,99,85,55,29.90,29.74,28,3,46,1.38
2013-4-11,53.6,48.0,43.4,52.2,47.2,43.1,100,97,91,29.90,29.57,10,2,20,0.25
2013-4-12,58.0,49.3,40.4,57.7,46.5,35.7,99,90,73,29.83,29.44,18,5,29,0.42
2013-4-13,44.6,41.7,34.8,38.6,35.2,30.1,91,78,69,30.02,29.83,14,5,23,0.00
2013-4-14,54.7,42.5,30.8,40.3,34.5,28.6,94,75,51,30.16,29.98,8,1,15,0.00
2013-4-15,70.0,59.7,46.9,53.3,46.7,37.4,76,63,50,30.05,29.96,14,5,23,0.00
2013-4-16,72.2,59.5,49.7,62.1,53.7,49.0,98,82,68,30.17,29.96,12,4,24,0.10
2013-4-17,68.0,55.1,46.1,52.9,45.5,39.9,99,73,41,30.27,30.05,8,2,12,0.01
2013-4-18,83.9,72.0,58.1,65.2,59.2,53.3,89,67,41,30.05,29.64,16,7,25,0.00
2013-4-19,74.8,57.3,41.0,61.4,47.1,30.5,94,70,53,29.81,29.35,17,9,29,0.18
2013-4-20,43.4,38.6,32.3,33.6,29.8,24.4,89,71,58,30.42,29.81,14,6,29,0.00
2013-4-21,51.3,38.6,27.6,33.2,27.9,24.8,94,68,36,30.63,30.42,9,1,12,0.01
2013-4-22,64.0,50.3,34.7,41.9,32.7,26.9,87,53,36,30.48,30.24,10,3,15,0.00
2013-4-23,71.8,57.2,41.5,45.3,37.7,29.1,75,50,33,30.24,29.88,13,4,20,0.00
2013-4-24,63.0,56.3,40.1,57.1,48.3,38.6,98,77,41,29.88,29.67,16,5,22,0.68
2013-4-25,54.5,45.7,36.2,41.4,37.7,32.8,100,76,48,30.35,30.18,16,4,26,0.06
2013-4-26,59.3,45.1,31.1,41.5,34.5,30.6,100,71,36,30.48,30.34,8,1,10,0.01
2013-4-27,72.9,54.8,35.4,43.8,37.7,33.0,92,59,26,30.40,30.11,8,1,14,0.00
2013-4-28,60.4,55.5,53.1,54.9,48.3,39.2,97,78,46,30.11,29.89,12,4,20,0.32
2013-4-29,65.2,57.3,52.4,58.8,54.9,51.1,96,92,76,29.98,29.88,8,3,14,0.14
2013-4-30,73.9,63.3,53.8,59.8,55.3,52.4,99,78,52,30.13,29.98,9,3,17,0.00
2013-5-1,77.7,65.2,53.4,59.8,52.9,41.6,90,66,42,30.25,30.12,9,3,13,0.00
2013-5-2,77.3,65.9,54.6,52.2,40.9,32.8,56,41,20,30.31,30.15,8,3,16,0.00
2013-5-3,76.0,65.4,54.3,48.2,42.7,35.0,62,45,29,30.20,30.09,15,4,24,0.00
2013-5-4,71.2,61.2,50.0,47.6,43.5,37.3,76,54,30,30.16,30.05,11,3,18,0.00
2013-5-5,75.7,61.9,46.3,46.4,39.4,27.0,87,48,19,30.11,29.97,12,2,20,0.00
2013-5-6,73.3,61.2,48.2,55.3,46.0,29.9,78,58,34,30.06,29.95,10,3,16,0.00
2013-5-7,75.2,63.5,53.7,59.4,54.9,51.2,93,75,47,30.01,29.92,10,1,15,0.00
2013-5-8,67.8,62.0,57.3,59.6,56.4,53.6,93,82,65,29.96,29.90,7,1,12,0.02
2013-5-9,76.9,63.6,54.2,60.9,54.6,46.8,99,76,36,29.96,29.88,5,1,11,0.00
2013-5-10,74.8,64.1,59.4,64.6,58.2,46.3,99,82,61,29.94,29.73,16,3,31,0.42
2013-5-11,60.3,50.3,44.9,60.3,48.6,44.4,100,94,87,29.83,29.71,7,2,18,0.14
2013-5-12,49.9,43.2,35.2,45.3,36.5,31.6,98,78,52,30.07,29.82,12,4,23,0.06
2013-5-13,51.2,41.6,32.8,37.2,32.4,27.1,97,72,45,30.18,30.05,9,2,20,0.09
2013-5-14,58.1,46.7,31.0,44.7,36.5,29.3,96,69,55,30.17,29.85,12,3,20,0.05
2013-5-15,82.9,66.7,51.1,64.4,54.2,40.3,83,65,46,29.85,29.67,15,3,31,0.00
2013-5-16,79.3,65.7,51.8,56.6,50.5,43.9,97,63,30,29.96,29.72,8,1,12,0.00
2013-5-17,78.0,63.0,47.4,56.3,48.5,43.7,94,63,35,30.11,29.95,6,1,13,0.00
2013-5-18,83.5,66.9,50.6,62.3,52.9,46.2,94,64,30,30.12,29.99,8,1,12,0.00
2013-5-19,80.3,70.0,59.9,67.4,62.4,57.9,93,78,60,30.05,29.91,9,2,14,0.00
2013-5-20,85.7,73.8,61.9,71.9,66.0,60.1,96,78,54,29.97,29.82,8,2,13,0.00
2013-5-21,85.8,76.7,67.9,72.0,67.8,64.6,97,76,50,29.88,29.74,10,2,20,0.00
2013-5-22,85.1,76.0,68.2,68.3,64.4,59.2,87,69,49,29.79,29.66,12,3,22,0.01
2013-5-23,74.5,63.0,45.6,65.9,59.7,44.4,98,90,66,29.93,29.69,10,2,18,0.69
2013-5-24,45.9,43.1,35.7,44.4,38.9,33.6,97,85,73,30.30,29.93,10,3,21,0.00
2013-5-25,59.7,47.0,32.5,44.6,38.0,31.6,99,74,45,30.34,30.25,9,2,17,0.00
2013-5-26,64.7,50.8,34.3,46.5,39.5,33.2,99,69,36,30.30,30.22,8,1,14,0.00
2013-5-27,62.4,51.8,36.8,51.0,43.2,35.5,98,75,47,30.27,30.08,6,1,12,0.01
2013-5-28,78.2,65.6,51.9,71.6,61.1,49.6,99,87,67,30.08,29.88,7,2,14,0.60
2013-5-29,84.9,75.7,68.3,70.9,64.6,61.1,79,69,53,30.01,29.91,12,3,19,0.00
2013-5-30,86.5,76.4,65.8,72.8,65.5,61.9,91,71,47,30.11,30.00,9,2,14,0.00
2013-5-31,86.6,75.5,66.9,69.8,66.0,63.3,96,74,48,30.04,29.90,12,2,17,0.09
2013-6-1,84.0,74.7,66.0,72.3,68.0,64.2,97,81,64,29.94,29.70,13,4,27,0.02
2013-6-2,76.2,69.8,61.6,69.4,63.6,57.0,100,82,60,29.87,29.69,14,3,24,1.19
2013-6-3,64.5,56.9,45.4,57.3,48.8,41.6,91,76,47,30.07,29.86,7,2,12,0.00
2013-6-4,69.3,55.6,41.7,55.2,47.3,40.6,100,76,47,30.16,30.07,7,1,12,0.00
2013-6-5,79.6,62.2,45.9,62.0,51.8,44.8,99,72,39,30.14,29.91,6,1,10,0.00
2013-6-6,67.0,61.9,55.8,66.7,60.7,52.3,100,96,79,29.91,29.74,7,1,11,0.62
2013-6-7,61.3,57.3,55.2,58.9,56.3,54.8,100,97,90,29.86,29.78,6,1,12,0.01
2013-6-8,69.4,61.2,55.8,60.3,56.8,54.7,99,86,65,30.08,29.85,7,0,12,0.01
2013-6-9,78.8,66.2,52.1,64.6,59.0,51.6,100,80,53,30.14,29.96,4,1,9,0.00
2013-6-10,73.0,68.7,64.1,70.9,66.7,63.0,99,94,79,29.96,29.70,8,1,14,0.44
2013-6-11,74.8,67.5,63.0,67.2,64.5,62.0,99,91,72,29.84,29.72,7,1,14,0.01
2013-6-12,78.0,70.1,61.7,71.4,66.9,61.1,100,90,74,29.87,29.65,3,0,8,0.00
2013-6-13,71.2,64.2,57.4,68.9,62.7,56.2,99,95,88,29.80,29.43,12,2,24,0.49
2013-6-14,72.1,61.7,54.2,64.6,58.1,52.3,100,89,67,30.05,29.79,6,1,12,0.01
2013-6-15,77.8,63.7,47.7,61.6,54.4,47.4,100,75,43,30.11,29.96,8,1,18,0.01
2013-6-16,78.7,69.3,63.5,69.8,65.0,59.7,98,87,70,29.98,29.79,10,3,20,0.06
2013-6-17,82.3,71.1,62.7,68.6,64.1,59.0,100,81,46,29.91,29.85,7,1,14,0.02
2013-6-18,76.3,66.4,56.7,66.9,60.0,50.6,96,80,66,29.98,29.83,7,2,16,0.00
2013-6-19,75.1,62.5,48.5,57.8,51.9,47.1,98,71,46,30.15,29.98,7,1,14,0.00
2013-6-20,80.1,64.8,48.8,62.7,54.0,47.6,99,71,44,30.22,30.14,6,1,12,0.00
2013-6-21,84.7,70.1,53.1,63.4,56.8,50.3,94,66,39,30.26,30.14,4,0,7,0.00
2013-6-22,88.0,76.6,63.2,69.8,63.0,57.3,82,64,46,30.16,30.02,8,2,15,0.00
2013-6-23,88.7,79.1,68.3,71.4,66.4,63.8,91,67,45,30.10,30.00,8,2,14,0.00
2013-6-24,88.0,78.5,68.5,69.5,64.6,61.6,82,64,42,30.10,29.95,9,2,17,0.00
2013-6-25,88.4,74.7,65.8,73.3,67.1,62.6,93,78,55,30.00,29.84,9,2,20,0.73
2013-6-26,83.0,72.7,65.8,70.9,66.8,63.7,94,83,59,29.92,29.78,7,1,11,0.33
2013-6-27,77.1,70.0,66.8,69.5,66.5,64.0,94,89,70,29.79,29.64,6,0,12,1.62
2013-6-28,79.7,69.8,63.5,68.4,64.2,61.1,95,84,59,29.64,29.49,6,1,11,0.02
2013-6-29,76.8,66.9,61.3,67.4,62.6,59.1,94,87,65,29.69,29.52,4,0,8,0.15
2013-6-30,78.4,68.7,60.9,69.2,63.8,59.0,96,85,68,29.87,29.68,5,1,9,0.01
2013-7-1,71.6,66.9,63.0,67.9,64.0,60.6,94,91,86,29.98,29.84,5,0,8,0.05
2013-7-2,83.6,72.0,63.8,70.5,65.5,61.3,93,81,58,30.04,29.93,5,0,8,0.01
2013-7-3,86.7,75.1,66.2,71.7,67.8,63.8,94,80,52,30.13,30.04,7,1,14,0.06
2013-7-4,80.4,73.7,68.6,71.2,67.8,66.0,93,82,66,30.17,30.11,8,1,13,0.02
2013-7-5,79.6,73.1,68.4,71.0,68.1,65.6,93,85,70,30.14,30.07,7,1,15,0.06
2013-7-6,85.6,74.9,68.7,73.8,69.4,66.6,94,84,60,30.15,30.01,8,1,13,0.14
2013-7-7,80.3,73.5,67.8,70.6,66.9,65.1,93,81,63,30.08,29.97,8,1,14,0.20
2013-7-8,85.7,72.8,63.5,71.3,66.1,61.4,94,81,54,30.09,30.00,7,1,12,0.12
2013-7-9,87.1,74.7,67.7,75.8,69.8,65.6,93,85,62,30.06,29.91,13,2,25,0.08
2013-7-10,85.5,71.6,65.3,77.9,68.8,63.2,95,91,73,29.95,29.77,11,2,20,2.46
2013-7-11,75.9,68.4,61.9,64.5,60.8,56.1,95,78,55,30.02,29.89,5,1,12,0.09
2013-7-12,79.6,68.1,56.8,65.8,60.3,54.5,95,77,52,30.12,30.02,6,1,12,0.00
2013-7-13,83.4,71.7,60.3,68.8,63.5,57.4,92,77,56,30.22,30.10,6,0,10,0.00
2013-7-14,87.8,76.9,66.3,74.4,69.1,63.8,94,78,56,30.26,30.20,8,1,12,0.00
2013-7-15,91.5,79.6,69.4,76.6,71.7,67.0,93,78,54,30.31,30.22,5,0,8,0.00
2013-7-16,89.5,78.1,71.3,78.8,73.8,69.2,95,87,64,30.29,30.21,4,0,8,0.21
2013-7-17,90.9,80.5,71.4,79.5,73.7,69.6,95,81,58,30.27,30.12,4,0,12,0.09
2013-7-18,91.6,81.3,72.8,78.7,74.0,70.2,93,79,58,30.16,29.98,5,0,12,0.00
2013-7-19,90.3,81.1,74.2,76.2,72.1,68.1,90,75,55,29.99,29.80,10,2,21,0.00
2013-7-20,78.6,72.1,67.7,71.6,67.7,65.0,94,86,73,29.91,29.79,9,1,16,0.96
2013-7-21,83.9,73.1,64.7,72.0,66.5,62.6,95,81,54,29.96,29.89,3,0,6,0.00
2013-7-22,78.8,69.2,63.0,70.9,65.6,60.6,94,88,72,29.95,29.75,4,0,6,0.16
2013-7-23,82.3,70.6,63.8,70.7,66.0,62.0,95,86,63,29.77,29.65,8,0,12,0.50
2013-7-24,70.5,63.2,54.6,62.6,54.9,51.1,89,75,58,30.03,29.77,0,0,0,0.00
2013-7-25,76.4,62.3,48.9,57.1,52.0,46.7,94,72,43,30.11,30.03,6,0,10,0.00
2013-7-26,80.7,66.4,52.1,61.0,55.3,49.8,95,71,40,30.11,29.98,0,0,0,0.00
2013-7-27,71.6,66.3,61.7,66.7,61.9,57.1,92,86,78,29.98,29.81,0,0,0,0.50
2013-7-28,70.5,63.5,58.9,60.9,55.8,50.5,94,78,54,30.02,29.83,0,0,0,0.02
2013-7-29,71.0,63.2,54.6,57.8,54.9,51.6,91,75,52,30.19,30.02,0,0,0,0.00
2013-7-30,78.3,65.3,53.2,62.9,57.5,51.2,95,78,49,30.25,30.15,0,0,0,0.00
2013-7-31,76.4,67.1,57.5,65.4,61.0,55.3,94,82,64,30.17,29.93,0,0,0,0.00
2013-8-1,79.2,69.9,61.6,67.7,63.4,58.5,94,81,56,29.94,29.84,0,0,0,0.24
2013-8-2,74.4,66.3,59.4,62.9,59.2,56.1,93,79,56,29.98,29.89,0,0,0,0.31
2013-8-3,77.9,69.4,59.3,65.9,61.1,52.4,94,77,47,30.00,29.91,0,0,0,0.00
2013-8-4,74.2,64.6,57.0,60.4,57.0,54.1,93,78,53,30.12,29.99,0,0,0,0.01
2013-8-5,72.4,61.6,50.1,59.3,54.0,47.9,95,78,48,30.14,30.02,0,0,0,0.00
2013-8-6,78.5,67.7,56.8,64.6,57.2,52.9,89,71,48,30.04,29.96,0,0,0,0.00
2013-8-7,78.6,69.6,64.0,69.0,63.7,57.5,92,82,68,29.97,29.88,0,0,5,0.33
2013-8-8,83.8,72.4,68.2,77.1,70.6,66.0,100,94,75,29.97,29.88,3,0,8,0.33
2013-8-9,80.4,69.9,59.4,71.0,66.5,57.8,100,90,59,30.02,29.89,0,0,0,0.04
2013-8-10,78.7,67.4,58.5,67.2,61.1,57.2,98,81,60,30.12,30.01,0,0,0,0.00
2013-8-11,80.9,68.9,60.7,66.1,61.5,57.4,96,79,53,30.14,30.03,0,0,0,0.00
2013-8-12,78.2,68.8,59.8,70.5,65.0,59.2,100,88,70,30.06,29.83,0,0,0,0.00
2013-8-13,72.1,66.9,54.5,68.3,62.1,51.4,98,85,67,29.98,29.78,0,0,0,0.00
2013-8-14,69.5,59.0,50.9,58.6,53.6,49.8,97,83,60,30.17,29.98,0,0,0,0.00
2013-8-15,72.8,59.7,48.4,59.2,52.9,47.9,100,81,52,30.21,30.12,0,0,0,0.01
2013-8-16,75.8,63.2,51.9,59.5,55.3,51.1,100,78,48,30.20,30.14,0,0,0,0.00
2013-8-17,79.0,65.3,53.0,63.4,58.0,52.2,99,79,49,30.26,30.19,0,0,0,0.00
2013-8-18,76.2,66.5,57.8,66.3,61.7,56.0,95,85,68,30.22,30.13,0,0,0,0.00
2013-8-19,82.2,69.7,61.6,68.7,65.0,60.2,98,86,52,30.15,30.06,0,0,0,0.00
2013-8-20,84.7,69.6,57.9,69.5,62.8,57.1,99,81,48,30.17,30.09,0,0,0,0.00
2013-8-21,86.5,71.8,59.6,69.0,63.9,58.7,99,79,45,30.19,30.04,0,0,0,0.01
2013-8-22,84.2,72.9,65.4,73.6,68.0,64.2,96,85,66,30.08,29.96,0,0,0,0.01
2013-8-23,82.3,71.0,57.4,67.3,61.8,54.7,98,76,43,30.17,29.99,0,0,0,0.01
2013-8-24,81.4,65.4,53.1,62.8,56.9,51.7,98,77,43,30.32,30.17,0,0,0,0.12
2013-8-25,84.2,68.4,53.2,65.7,59.5,52.2,100,76,44,30.36,30.21,0,0,0,0.00
2013-8-26,85.3,73.5,63.5,69.9,64.2,58.8,94,74,50,30.23,29.98,0,0,2,0.12
2013-8-27,81.8,73.3,68.0,74.9,70.3,66.8,98,91,75,30.01,29.89,8,1,14,0.54
2013-8-28,77.0,72.4,70.0,74.9,71.2,68.6,98,96,91,29.95,29.81,5,0,8,1.11
2013-8-29,85.5,74.2,68.0,73.5,69.6,66.3,98,87,58,30.05,29.94,3,0,5,0.00
2013-8-30,86.4,73.8,62.3,73.1,67.7,61.4,98,83,57,30.01,29.80,1,0,2,0.00
2013-8-31,87.0,76.6,69.0,74.4,70.5,67.5,95,82,61,29.82,29.74,6,0,12,0.00
2013-9-1,85.6,73.8,66.5,74.2,69.8,65.3,97,88,63,29.81,29.73,4,0,8,0.06
2013-9-2,83.5,71.7,64.1,73.3,68.1,61.9,98,89,67,29.84,29.73,5,0,9,0.15
2013-9-3,65.6,62.5,56.5,63.1,58.5,55.1,95,87,78,30.04,29.84,2,0,4,0.00
2013-9-4,79.1,64.4,53.5,63.4,57.6,52.6,99,81,51,30.12,30.03,5,1,12,0.01
2013-9-5,71.6,63.3,50.7,61.3,54.6,48.1,94,75,48,30.23,30.04,4,1,9,0.00
2013-9-6,73.8,57.5,44.5,55.7,48.5,43.2,98,76,37,30.31,30.14,4,0,7,0.00
2013-9-7,80.8,64.0,47.5,66.3,56.1,45.8,96,78,50,30.14,29.93,5,0,8,0.00
2013-9-8,75.5,66.8,53.2,66.8,61.1,50.6,96,83,56,30.08,29.90,4,0,9,0.00
2013-9-9,79.2,65.1,51.5,72.4,60.9,49.5,95,87,75,30.10,29.99,4,0,7,0.00
2013-9-10,93.4,80.0,70.9,77.6,72.7,68.2,92,80,56,30.07,29.99,5,1,9,0.00
2013-9-11,91.2,80.8,73.9,76.9,73.0,70.0,94,79,52,30.08,29.95,4,1,10,0.00
2013-9-12,75.3,69.0,59.5,70.6,66.5,57.9,97,92,84,29.96,29.80,3,0,14,0.84
2013-9-13,62.7,57.0,50.5,58.7,53.4,48.3,97,88,64,30.07,29.84,6,1,14,0.19
2013-9-14,65.9,54.3,47.0,51.0,46.9,42.4,94,78,52,30.18,30.06,4,0,7,0.01
2013-9-15,67.5,56.2,45.2,57.0,50.6,43.6,96,83,58,30.20,30.07,5,0,8,0.02
2013-9-16,67.9,58.7,49.3,59.9,54.9,47.6,97,88,69,30.34,30.11,5,1,11,0.05
2013-9-17,70.0,53.1,39.9,49.8,44.2,38.9,99,76,34,30.44,30.27,5,1,9,0.01
2013-9-18,75.5,59.7,46.3,59.1,51.0,42.0,87,74,51,30.27,30.10,5,1,10,0.00
2013-9-19,74.2,65.3,59.8,65.8,61.5,55.9,94,88,73,30.13,30.00,4,1,8,0.00
2013-9-20,76.7,69.0,60.8,70.8,66.0,58.9,96,90,81,30.03,29.77,6,1,12,0.00
2013-9-21,71.5,63.4,54.2,68.6,61.7,52.8,99,94,79,29.80,29.65,5,0,10,1.16
2013-9-22,60.9,54.8,51.4,55.4,50.6,44.8,97,86,60,30.06,29.80,4,0,7,0.02
2013-9-23,58.6,51.8,43.2,49.6,46.8,41.3,95,84,64,30.19,30.05,2,0,4,0.00
2013-9-24,69.9,52.1,37.7,54.3,46.6,36.7,98,84,53,30.17,30.00,4,0,7,0.01
2013-9-25,73.1,55.1,43.6,59.9,50.5,42.4,98,86,59,30.03,29.92,4,0,8,0.00
2013-9-26,73.8,57.0,45.8,59.1,50.6,44.7,98,82,44,30.13,29.98,3,0,5,0.01
2013-9-27,73.3,58.7,48.4,56.7,51.9,47.1,97,81,49,30.23,30.13,3,0,8,0.00
2013-9-28,74.9,61.2,50.7,59.6,54.0,49.3,96,79,53,30.26,30.14,5,1,8,0.01
2013-9-29,71.5,61.5,52.4,62.0,55.5,48.8,91,81,68,30.14,30.00,5,1,10,0.00
2013-9-30,66.8,62.5,58.6,61.0,59.3,57.1,95,89,79,30.03,29.97,4,0,8,0.00
2013-10-1,76.9,64.9,56.5,64.8,59.4,55.1,97,84,59,30.08,29.98,4,1,9,0.00
2013-10-2,80.1,67.0,59.4,69.7,62.2,57.5,95,85,63,30.09,30.01,3,0,5,0.00
2013-10-3,79.5,65.1,55.3,70.5,62.4,54.2,97,91,71,30.09,29.99,5,1,9,0.18
2013-10-4,80.1,68.4,64.8,69.5,65.5,63.7,97,91,64,30.07,30.00,7,1,12,0.10
2013-10-5,76.4,69.1,64.2,70.7,66.9,63.3,98,93,77,30.07,29.95,4,1,7,0.07
2013-10-6,81.5,72.6,66.7,70.0,66.1,62.3,96,81,59,29.96,29.70,10,2,17,0.02
2013-10-7,66.7,54.8,48.7,64.1,49.6,44.1,96,83,66,30.14,29.71,10,2,17,0.68
2013-10-8,67.9,53.8,43.9,52.2,46.6,42.6,98,79,47,30.33,30.13,4,0,7,0.00
2013-10-9,70.6,54.7,44.9,50.3,45.3,42.4,92,74,38,30.36,30.25,6,0,10,0.00
2013-10-10,71.2,53.9,42.6,53.7,45.4,40.1,95,75,37,30.26,30.12,2,0,4,0.00
2013-10-11,73.7,56.8,45.2,56.2,49.4,43.9,97,79,44,30.16,30.07,4,0,8,0.00
2013-10-12,75.9,61.2,48.3,63.3,55.0,44.8,94,81,63,30.15,30.08,5,0,7,0.00
2013-10-13,68.1,63.3,59.9,62.0,59.6,57.2,96,88,78,30.28,30.15,3,0,6,0.25
2013-10-14,66.2,57.2,45.5,58.8,50.9,42.8,96,81,58,30.35,30.25,4,1,8,0.00
2013-10-15,66.8,57.2,43.8,60.7,54.0,41.9,96,89,78,30.26,29.96,6,1,9,0.00
2013-10-16,64.8,60.5,51.0,62.2,58.3,49.6,97,93,82,29.96,29.80,7,1,13,0.52
2013-10-17,59.1,50.4,44.4,51.9,48.0,43.6,98,92,73,29.92,29.76,7,1,13,0.48
2013-10-18,61.7,52.0,43.5,48.0,44.7,41.9,95,77,52,30.01,29.88,10,2,16,0.00
2013-10-19,49.9,47.1,46.4,43.9,42.6,42.4,86,85,78,29.96,29.72,5,0,7,0.00
2013-10-20,57.9,49.4,37.8,43.9,41.8,36.5,99,76,54,30.01,29.92,8,2,14,0.00
2013-10-21,63.4,53.7,45.4,49.5,41.7,38.8,85,65,44,30.02,29.85,8,2,14,0.00
2013-10-22,51.7,44.2,38.2,48.2,36.3,29.7,94,75,48,29.97,29.85,9,2,16,0.14
2013-10-23,46.4,39.7,35.1,41.0,35.4,31.9,94,85,67,29.96,29.81,6,1,12,0.19
2013-10-24,42.7,36.0,32.5,37.5,33.8,31.0,96,92,73,30.18,29.94,7,1,13,0.10
2013-10-25,47.1,39.0,33.9,39.4,34.0,30.3,97,83,56,30.35,30.17,7,1,13,0.04
2013-10-26,45.6,40.4,34.1,39.1,31.0,28.4,93,70,53,30.25,29.89,12,3,22,0.00
2013-10-27,49.4,40.1,34.3,39.4,34.6,32.2,96,82,54,30.12,29.99,7,1,13,0.01
2013-10-28,56.8,42.7,32.6,43.4,36.8,30.5,94,81,56,30.36,30.11,4,1,7,0.00
2013-10-29,55.6,42.4,31.7,43.3,37.0,30.4,97,83,55,30.44,30.28,4,0,6,0.00
2013-10-30,64.8,50.9,36.2,51.9,42.7,34.4,96,76,45,30.28,30.08,6,1,8,0.00
2013-10-31,65.9,60.1,54.7,59.3,57.0,51.4,96,90,74,30.08,29.36,11,4,22,0.57
2013-11-1,65.6,55.2,49.8,59.1,48.2,42.4,93,78,64,29.70,29.26,13,4,25,0.22
2013-11-2,49.6,45.3,41.7,46.4,43.6,40.0,96,93,88,30.02,29.67,3,1,7,0.04
2013-11-3,46.1,37.8,29.4,40.7,33.0,25.4,99,84,61,30.52,30.02,4,1,8,0.00
2013-11-4,45.1,36.0,25.7,26.9,23.2,18.5,89,62,36,30.61,30.45,7,1,16,0.01
2013-11-5,59.3,48.2,39.1,39.8,33.5,26.4,66,57,46,30.50,30.32,8,2,12,0.00
2013-11-6,67.9,55.7,44.8,57.2,45.5,31.3,96,70,54,30.32,29.88,13,4,20,0.28
2013-11-7,57.6,42.6,35.8,56.2,38.0,28.9,95,84,65,30.13,29.89,11,3,16,0.27
2013-11-8,41.0,36.2,29.3,34.5,31.4,26.7,94,83,65,30.32,30.10,9,2,15,0.06
2013-11-9,56.4,44.9,29.3,39.7,32.2,26.6,91,63,41,30.30,29.93,10,5,18,0.00
2013-11-10,52.9,46.0,43.8,41.0,34.8,29.2,75,65,56,30.25,29.94,12,5,25,0.00
2013-11-11,46.5,40.7,31.9,39.3,33.0,30.3,94,75,54,30.24,30.04,10,4,20,0.08
2013-11-12,34.7,30.7,27.8,30.3,27.0,23.2,95,86,70,30.52,30.20,6,1,13,0.19
2013-11-13,36.7,31.6,28.1,25.6,22.7,20.6,90,70,57,30.57,30.33,9,4,13,0.01
2013-11-14,48.7,38.4,30.0,25.9,22.3,20.2,75,53,33,30.33,30.16,10,4,15,0.03
2013-11-15,54.2,45.8,38.8,32.6,25.3,19.8,62,45,26,30.19,30.11,10,2,16,0.00
2013-11-16,59.1,50.8,39.2,50.2,42.8,32.5,87,74,62,30.24,29.98,10,2,17,0.00
2013-11-17,61.6,57.4,53.1,57.9,53.5,44.3,94,87,69,29.99,29.43,23,6,38,0.83
2013-11-18,53.5,45.0,36.2,44.8,35.5,25.9,78,69,59,30.11,29.56,16,6,26,0.00
2013-11-19,38.4,35.3,26.8,28.6,26.9,23.8,89,72,61,30.46,30.11,5,1,12,0.00
2013-11-20,46.1,34.9,23.2,25.7,19.9,13.7,93,60,32,30.52,30.38,13,2,23,0.00
2013-11-21,44.7,39.5,36.0,40.7,31.0,16.0,96,73,43,30.45,30.23,5,1,8,0.07
2013-11-22,49.9,44.4,35.6,49.1,42.6,30.5,97,93,82,30.31,30.11,11,1,17,0.18
2013-11-23,35.4,28.9,21.0,30.5,23.1,9.3,91,79,60,30.41,30.21,11,2,17,0.00
2013-11-24,24.0,21.0,16.3,18.3,13.5,9.9,86,73,62,30.58,30.41,11,4,19,0.00
2013-11-25,35.2,25.5,16.2,25.4,14.8,11.0,84,65,47,30.54,30.23,13,4,21,0.00
2013-11-26,34.3,32.7,31.5,32.0,29.8,24.8,93,89,73,30.24,29.84,8,2,12,0.35
2013-11-27,33.8,28.6,23.5,31.7,25.1,18.7,93,87,73,30.15,29.80,6,1,11,0.05
2013-11-28,27.2,24.2,17.3,22.4,18.3,12.7,86,78,66,30.48,30.15,8,3,13,0.00
2013-11-29,33.8,26.7,21.6,24.4,20.8,17.1,91,79,57,30.71,30.48,4,0,5,0.00
2013-11-30,38.1,30.5,23.8,26.9,23.2,18.6,84,74,63,30.67,30.24,10,3,15,0.00
2013-12-1,41.1,36.4,32.1,31.1,29.3,26.3,88,76,66,30.24,30.00,8,2,12,0.00
2013-12-2,39.8,35.3,30.4,35.3,31.9,28.5,94,87,78,30.00,29.89,3,0,4,0.00
2013-12-3,48.7,38.7,29.2,40.8,34.7,27.7,95,86,69,29.97,29.91,4,1,7,0.00
2013-12-4,57.2,49.3,40.0,48.3,43.3,36.6,92,80,72,29.99,29.83,9,2,20,0.00
2013-12-5,62.4,52.4,34.9,58.0,46.9,32.6,92,82,65,30.10,29.79,10,4,23,0.08
2013-12-6,35.2,33.2,29.9,32.8,30.4,26.5,95,89,77,30.26,30.08,5,1,8,0.21
2013-12-7,27.2,23.2,18.7,22.1,17.8,14.1,91,80,71,30.65,30.44,6,2,10,0.00
2013-12-8,29.0,24.4,18.9,26.2,18.7,14.5,89,79,65,30.65,30.11,9,1,14,0.00
2013-12-9,35.4,32.5,28.1,34.4,28.3,20.1,96,85,73,30.17,29.97,14,4,22,0.03
2013-12-10,28.0,25.0,22.5,20.1,15.0,8.7,83,66,46,30.29,30.04,13,6,24,0.00
2013-12-11,25.1,22.4,19.4,20.8,16.9,11.5,91,80,64,30.43,30.29,9,4,15,0.02
2013-12-12,19.5,15.8,9.9,16.2,7.1,2.9,88,69,48,30.51,30.29,11,4,17,0.04
2013-12-13,29.6,23.3,17.0,19.6,13.9,5.5,86,67,57,30.33,30.25,8,2,12,0.00
2013-12-14,34.6,30.1,23.3,33.3,26.9,18.8,95,88,73,30.31,29.68,5,1,12,0.35
2013-12-15,34.9,25.6,16.3,33.8,22.1,10.9,96,87,75,30.09,29.67,14,5,25,0.03
2013-12-16,23.4,18.5,12.6,17.7,11.9,8.9,85,75,62,30.23,30.07,8,2,10,0.36
2013-12-17,28.1,25.9,22.2,26.5,22.3,17.8,94,86,77,30.09,29.97,8,3,12,0.11
2013-12-18,29.2,26.3,24.0,23.5,21.3,17.8,90,81,72,30.21,30.07,9,4,13,0.00
2013-12-19,45.2,38.1,26.3,35.0,27.4,19.2,75,65,58,30.10,30.00,8,3,15,0.00
2013-12-20,54.4,47.5,43.4,52.3,41.3,30.6,95,80,55,30.00,29.84,9,4,15,0.17
2013-12-21,60.2,51.3,41.8,59.3,50.0,40.7,98,95,86,29.85,29.53,11,3,21,0.99
2013-12-22,63.9,55.6,42.3,59.8,50.3,38.8,97,83,63,29.97,29.43,20,6,31,0.36
2013-12-23,42.4,34.8,30.1,39.4,29.9,21.0,94,82,67,30.33,29.97,8,3,13,0.09
2013-12-24,30.1,21.0,15.8,23.7,16.0,11.9,88,81,71,30.58,30.29,14,4,21,0.00
2013-12-25,27.9,21.2,14.9,21.8,14.4,10.8,87,75,63,30.57,30.23,9,3,15,0.00
2013-12-26,32.0,28.6,20.9,28.1,22.5,15.9,92,78,62,30.38,30.14,15,4,22,0.04
2013-12-27,40.7,33.7,25.2,30.6,26.1,19.6,79,73,66,30.39,30.23,8,3,12,0.00
2013-12-28,50.6,42.6,34.9,35.7,31.5,28.5,79,65,52,30.23,30.03,10,4,16,0.00
2013-12-29,42.9,40.7,30.8,40.7,33.0,26.1,99,76,52,30.02,29.72,9,2,12,0.14
2013-12-30,30.7,22.0,19.3,28.4,16.8,12.3,91,80,72,30.28,29.91,6,2,12,0.00
2013-12-31,22.2,19.8,15.9,19.7,14.6,10.2,90,80,69,30.37,30.11,12,4,22,0.06
2014-1-1,25.8,22.6,19.5,20.7,18.6,16.5,88,84,80,30.41,30.17,4,1,6,0.04
2014-1-2,22.1,17.9,10.4,18.2,14.3,6.5,88,86,83,30.18,29.86,9,2,17,0.23